Time;durP1;ratioP1;P1;durP2;ratioP2;P2;SDS_P1;SDS_P2;PMS_P1;PMS_P2;Temp;Humidity;BMP_temperature;BMP_pressure;BME280_temperature;BME280_humidity;BME280_pressure;Samples;Min_cycle;Max_cycle;Signal;HPM_P1;HPM_P2
2022/07/04 00:02:12;;;;;;;;;;;;;;;23.99;83.03;97137.30;578587;245;68925;-69
2022/07/04 00:04:40;;;;;;;;;;;;;;;23.98;83.07;97135.72;578569;245;68635;-69
2022/07/04 00:07:09;;;;;;;;;;;;;;;23.98;83.02;97133.03;578641;245;44821;-70
2022/07/04 00:09:37;;;;;;;;;;;;;;;23.98;83.00;97133.03;578582;245;66551;-70
2022/07/04 00:12:04;;;;;;;;;;;;;;;23.98;83.02;97133.03;578555;245;66543;-70
2022/07/04 00:14:32;;;;;;;;;;;;;;;23.98;83.09;97135.72;578626;245;65004;-70
2022/07/04 00:16:59;;;;;;;;;;;;;;;23.98;83.11;97124.16;578544;245;68715;-70
2022/07/04 00:19:27;;;;;;;;;;;;;;;23.97;83.10;97123.36;578561;245;68673;-70
2022/07/04 00:21:54;;;;;;;;;;;;;;;23.98;83.06;97114.24;578561;245;62794;-71
2022/07/04 00:24:22;;;;;;;;;;;;;;;23.98;83.09;97114.24;578572;245;66439;-71
2022/07/04 00:26:49;;;;;;;;;;;;;;;23.98;83.11;97114.24;578589;245;66410;-71
2022/07/04 00:29:17;;;;;;;;;;;;;;;23.98;83.12;97111.56;578536;245;62745;-71
2022/07/04 00:31:44;;;;;;;;;;;;;;;23.98;83.12;97110.73;578553;245;66471;-71
2022/07/04 00:34:12;;;;;;;;;;;;;;;23.98;83.15;97111.56;578576;245;66554;-71
2022/07/04 00:36:39;;;;;;;;;;;;;;;23.98;83.18;97110.73;578544;245;62829;-71
2022/07/04 00:39:07;;;;;;;;;;;;;;;23.99;83.18;97109.67;578616;245;68709;-71
2022/07/04 00:41:34;;;;;;;;;;;;;;;23.99;83.25;97106.98;578589;245;68263;-71
2022/07/04 00:44:03;;;;;;;;;;;;;;;23.98;83.24;97111.56;578525;245;62865;-71
2022/07/04 00:46:30;;;;;;;;;;;;;;;23.98;83.37;97111.56;578586;245;66574;-71
2022/07/04 00:48:58;;;;;;;;;;;;;;;23.98;83.35;97108.88;578546;245;66811;-71
2022/07/04 00:51:26;;;;;;;;;;;;;;;23.97;83.34;97104.58;578597;245;62770;-71
2022/07/04 00:53:54;;;;;;;;;;;;;;;23.98;83.38;97111.56;576724;245;66490;-71
2022/07/04 00:56:22;;;;;;;;;;;;;;;23.98;83.29;97106.19;571429;248;68548;-71
2022/07/04 00:58:50;;;;;;;;;;;;;;;23.98;83.34;97098.14;571468;248;65092;-71
2022/07/04 01:01:18;;;;;;;;;;;;;;;23.98;83.33;97106.19;571459;248;68427;-71
2022/07/04 01:03:46;;;;;;;;;;;;;;;23.98;83.34;97106.19;571519;248;68251;-71
2022/07/04 01:06:15;;;;;;;;;;;;;;;23.98;83.33;97110.73;571549;248;62794;-71
2022/07/04 01:08:43;;;;;;;;;;;;;;;23.98;83.34;97111.56;571497;248;68091;-71
2022/07/04 01:11:11;;;;;;;;;;;;;;;23.97;83.31;97109.94;571469;248;69245;-71
2022/07/04 01:13:40;;;;;;;;;;;;;;;23.97;83.31;97115.31;571464;248;64908;-71
2022/07/04 01:16:08;;;;;;;;;;;;;;;23.98;83.29;97113.42;571456;248;68700;-71
2022/07/04 01:18:35;;;;;;;;;;;;;;;23.98;83.26;97108.88;571501;248;68684;-71
2022/07/04 01:21:03;;;;;;;;;;;;;;;23.97;83.28;97104.58;571498;248;64870;-71
2022/07/04 01:23:30;;;;;;;;;;;;;;;23.98;83.24;97114.24;571464;248;68609;-71
2022/07/04 01:25:59;;;;;;;;;;;;;;;23.97;83.25;97101.89;571457;248;68298;-71
2022/07/04 01:28:26;;;;;;;;;;;;;;;23.98;83.20;97108.05;571464;248;62848;-71
2022/07/04 01:30:54;;;;;;;;;;;;;;;23.98;83.20;97105.37;571541;248;66548;-71
2022/07/04 01:33:21;;;;;;;;;;;;;;;23.98;83.33;97108.88;571448;248;66481;-71
2022/07/04 01:35:49;;;;;;;;;;;;;;;23.98;83.46;97108.88;571445;248;62814;-71
2022/07/04 01:38:16;;;;;;;;;;;;;;;23.97;83.52;97109.94;571431;248;66454;-71
2022/07/04 01:40:44;;;;;;;;;;;;;;;23.97;83.48;97109.15;571455;248;66486;-71
2022/07/04 01:43:11;;;;;;;;;;;;;;;23.98;83.44;97111.56;571500;248;62976;-71
2022/07/04 01:45:39;;;;;;;;;;;;;;;23.97;83.42;97107.26;571446;248;68695;-71
2022/07/04 01:48:07;;;;;;;;;;;;;;;23.97;83.44;97109.15;571449;248;68586;-71
2022/07/04 01:50:36;;;;;;;;;;;;;;;23.98;83.40;97111.56;571404;248;63660;-71
2022/07/04 01:53:03;;;;;;;;;;;;;;;23.99;83.41;97115.03;571466;248;66742;-71
2022/07/04 01:55:31;;;;;;;;;;;;;;;23.97;83.40;97107.26;578091;245;67390;-71
2022/07/04 01:58:00;;;;;;;;;;;;;;;23.97;83.46;97115.31;578580;245;62776;-71
2022/07/04 02:03:13;;;;;;;;;;;;;;;23.97;83.49;97118.00;578491;245;68951;-71
2022/07/04 02:05:40;;;;;;;;;;;;;;;23.98;83.54;97116.11;578552;245;62684;-71
2022/07/04 02:08:08;;;;;;;;;;;;;;;23.97;83.52;97123.36;578565;245;67486;-71
2022/07/04 02:10:37;;;;;;;;;;;;;;;23.97;83.56;97123.36;578585;245;68558;-71
2022/07/04 02:13:05;;;;;;;;;;;;;;;23.97;83.48;97126.05;578552;245;64878;-71
2022/07/04 02:15:35;;;;;;;;;;;;;;;23.98;83.63;97130.34;578541;243;68688;-71
2022/07/04 02:18:03;;;;;;;;;;;;;;;23.96;83.62;97127.14;578537;245;68544;-70
2022/07/04 02:20:30;;;;;;;;;;;;;;;23.97;83.61;97142.16;578572;245;62939;-70
2022/07/04 02:22:58;;;;;;;;;;;;;;;23.97;83.69;97138.67;578557;245;68459;-70
2022/07/04 02:25:26;;;;;;;;;;;;;;;23.98;83.61;97148.31;578599;245;68844;-70
2022/07/04 02:27:55;;;;;;;;;;;;;;;23.97;83.61;97150.20;578514;245;62424;-70
2022/07/04 02:30:23;;;;;;;;;;;;;;;23.97;83.57;97142.16;578538;242;66988;-70
2022/07/04 02:32:50;;;;;;;;;;;;;;;23.97;83.62;97147.52;578546;245;66547;-70
2022/07/04 02:35:18;;;;;;;;;;;;;;;23.97;83.69;97144.84;578547;245;63654;-70
2022/07/04 02:37:45;;;;;;;;;;;;;;;23.97;83.73;97136.78;578565;245;68662;-70
2022/07/04 02:40:13;;;;;;;;;;;;;;;23.98;83.84;97141.09;578550;245;68379;-70
2022/07/04 02:42:40;;;;;;;;;;;;;;;23.97;83.78;97144.84;578537;245;62848;-70
2022/07/04 02:45:08;;;;;;;;;;;;;;;23.97;83.88;97144.05;578576;245;66337;-70
2022/07/04 02:47:35;;;;;;;;;;;;;;;23.97;83.89;97146.73;578546;245;68548;-70
2022/07/04 02:50:03;;;;;;;;;;;;;;;23.96;83.91;97140.56;578588;245;64916;-70
2022/07/04 02:52:31;;;;;;;;;;;;;;;23.97;83.81;97150.20;578512;245;68878;-70
2022/07/04 02:54:58;;;;;;;;;;;;;;;23.97;83.90;97142.16;578549;245;68621;-70
2022/07/04 02:57:26;;;;;;;;;;;;;;;23.96;83.87;97139.77;578558;243;64943;-70
2022/07/04 02:59:53;;;;;;;;;;;;;;;23.97;83.86;97152.89;578587;245;68709;-70
2022/07/04 03:02:21;;;;;;;;;;;;;;;23.97;83.90;97147.52;578624;245;68509;-70
2022/07/04 03:04:48;;;;;;;;;;;;;;;23.97;83.86;97149.41;578578;245;64924;-70
2022/07/04 03:07:16;;;;;;;;;;;;;;;23.96;83.81;97156.67;578589;245;68766;-70
2022/07/04 03:09:44;;;;;;;;;;;;;;;23.98;83.78;97162.56;578573;245;68358;-70
2022/07/04 03:12:11;;;;;;;;;;;;;;;23.97;83.77;97158.26;578586;245;62796;-70
2022/07/04 03:14:39;;;;;;;;;;;;;;;23.97;83.81;97163.63;578618;245;66514;-70
2022/07/04 03:17:06;;;;;;;;;;;;;;;23.96;83.84;97156.67;578582;245;66784;-70
2022/07/04 03:19:34;;;;;;;;;;;;;;;23.97;83.86;97158.26;578575;245;62756;-70
2022/07/04 03:22:01;;;;;;;;;;;;;;;23.97;83.95;97154.78;578560;245;66557;-70
2022/07/04 03:24:29;;;;;;;;;;;;;;;23.96;83.97;97155.88;578545;245;66305;-70
2022/07/04 03:26:56;;;;;;;;;;;;;;;23.96;83.99;97156.67;578586;245;64914;-70
2022/07/04 03:29:25;;;;;;;;;;;;;;;23.97;83.97;97154.78;578597;245;66553;-70
2022/07/04 03:31:53;;;;;;;;;;;;;;;23.97;84.04;97152.09;578594;245;68513;-70
2022/07/04 03:34:20;;;;;;;;;;;;;;;23.96;84.06;97150.51;578574;245;62710;-70
2022/07/04 03:36:48;;;;;;;;;;;;;;;23.97;84.09;97152.09;578542;245;68358;-70
2022/07/04 03:39:15;;;;;;;;;;;;;;;23.96;84.10;97151.30;578578;245;66329;-70
2022/07/04 03:41:43;;;;;;;;;;;;;;;23.96;84.08;97151.30;578582;245;62734;-70
2022/07/04 03:44:10;;;;;;;;;;;;;;;23.96;84.16;97151.30;578511;245;66636;-70
2022/07/04 03:46:38;;;;;;;;;;;;;;;23.96;84.16;97155.88;578571;245;66407;-70
2022/07/04 03:49:05;;;;;;;;;;;;;;;23.96;84.23;97153.98;578555;243;62875;-70
2022/07/04 03:51:33;;;;;;;;;;;;;;;23.97;84.31;97163.63;578594;245;68714;-70
2022/07/04 03:54:01;;;;;;;;;;;;;;;23.96;84.22;97164.73;578498;245;68730;-70
2022/07/04 03:56:28;;;;;;;;;;;;;;;23.96;84.25;97162.04;578581;245;62798;-70
2022/07/04 03:58:56;;;;;;;;;;;;;;;23.96;84.32;97162.04;578586;245;68723;-70
2022/07/04 04:01:24;;;;;;;;;;;;;;;23.96;84.23;97153.98;578557;243;68645;-70
2022/07/04 04:06:37;;;;;;;;;;;;;;;23.96;84.39;97162.04;578595;245;68800;-69
2022/07/04 04:09:05;;;;;;;;;;;;;;;23.96;84.27;97164.73;578561;245;68803;-70
2022/07/04 04:11:32;;;;;;;;;;;;;;;23.96;84.18;97167.41;578557;245;64862;-70
2022/07/04 04:13:59;;;;;;;;;;;;;;;23.96;84.16;97163.93;578579;245;68844;-70
2022/07/04 04:16:27;;;;;;;;;;;;;;;23.96;84.29;97159.36;578510;245;69481;-70
2022/07/04 04:18:54;;;;;;;;;;;;;;;23.95;84.19;97168.48;578611;245;62987;-70
2022/07/04 04:21:22;;;;;;;;;;;;;;;23.95;84.04;97165.79;578583;245;68737;-70
2022/07/04 04:23:50;;;;;;;;;;;;;;;23.95;84.07;97168.48;578582;245;68249;-70
2022/07/04 04:26:18;;;;;;;;;;;;;;;23.95;84.12;97168.48;578560;245;62649;-70
2022/07/04 04:28:45;;;;;;;;;;;;;;;23.96;84.13;97172.78;578568;245;66502;-70
2022/07/04 04:31:14;;;;;;;;;;;;;;;23.96;84.13;97174.67;578576;245;66049;-70
2022/07/04 04:33:41;;;;;;;;;;;;;;;23.97;84.17;97176.25;578562;245;65774;-70
2022/07/04 04:36:09;;;;;;;;;;;;;;;23.96;84.17;97175.46;578560;245;68669;-70
2022/07/04 04:38:37;;;;;;;;;;;;;;;23.96;84.26;97180.04;578551;245;68463;-70
2022/07/04 04:41:04;;;;;;;;;;;;;;;23.96;84.28;97182.72;578546;245;62847;-70
2022/07/04 04:43:32;;;;;;;;;;;;;;;23.96;84.32;97183.52;578552;245;66489;-70
2022/07/04 04:45:59;;;;;;;;;;;;;;;23.96;84.43;97182.72;578548;245;66481;-70
2022/07/04 04:48:27;;;;;;;;;;;;;;;23.96;84.46;97180.04;578589;245;63504;-69
2022/07/04 04:50:54;;;;;;;;;;;;;;;23.96;84.50;97182.72;578560;245;68215;-70
2022/07/04 04:53:25;;;;;;;;;;;;;;;23.94;84.43;97188.36;578216;245;68379;-70
2022/07/04 04:55:51;;;;;;;;;;;;;;;23.95;84.43;97191.84;571401;247;64929;-69
2022/07/04 04:58:19;;;;;;;;;;;;;;;23.95;84.24;97192.63;571481;248;66876;-70
2022/07/04 05:00:49;;;;;;;;;;;;;;;23.96;84.29;97193.45;571449;246;66417;-70
2022/07/04 05:03:16;;;;;;;;;;;;;;;23.95;84.34;97192.63;571457;246;62823;-70
2022/07/04 05:05:46;;;;;;;;;;;;;;;23.95;84.32;97192.63;571460;248;66491;-70
2022/07/04 05:08:14;;;;;;;;;;;;;;;23.95;84.35;97192.63;571359;248;66272;-70
2022/07/04 05:10:41;;;;;;;;;;;;;;;23.95;84.18;97195.31;571362;248;62754;-70
2022/07/04 05:13:09;;;;;;;;;;;;;;;23.95;84.25;97198.00;571480;248;66244;-70
2022/07/04 05:15:36;;;;;;;;;;;;;;;23.94;84.23;97188.36;571572;245;68279;-70
2022/07/04 05:18:03;;;;;;;;;;;;;;;23.95;84.21;97189.95;571464;248;65086;-70
2022/07/04 05:20:32;;;;;;;;;;;;;;;23.95;84.36;97189.16;571420;248;68416;-70
2022/07/04 05:23:00;;;;;;;;;;;;;;;23.94;84.39;97185.67;571413;248;68324;-70
2022/07/04 05:25:27;;;;;;;;;;;;;;;23.96;84.42;97193.45;571486;246;65144;-70
2022/07/04 05:27:55;;;;;;;;;;;;;;;23.95;84.46;97191.84;571451;248;68379;-70
2022/07/04 05:30:22;;;;;;;;;;;;;;;23.96;84.49;97185.41;571460;248;66251;-70
2022/07/04 05:32:50;;;;;;;;;;;;;;;23.95;84.48;97197.20;571370;246;62741;-70
2022/07/04 05:35:17;;;;;;;;;;;;;;;23.95;84.48;97191.84;571425;248;68224;-70
2022/07/04 05:37:46;;;;;;;;;;;;;;;23.93;84.54;97192.94;571455;248;68279;-70
2022/07/04 05:40:14;;;;;;;;;;;;;;;23.94;84.51;97193.73;571368;248;63055;-70
2022/07/04 05:42:43;;;;;;;;;;;;;;;23.94;84.45;97191.05;570887;248;48613;-70
2022/07/04 05:45:11;;;;;;;;;;;;;;;23.95;84.56;97191.84;571341;248;68955;-66
2022/07/04 05:47:38;;;;;;;;;;;;;;;23.94;84.39;97188.36;571446;248;65068;-71
2022/07/04 05:50:06;;;;;;;;;;;;;;;23.96;82.61;97193.45;571290;248;68632;-71
2022/07/04 05:52:34;;;;;;;;;;;;;;;23.95;83.49;97187.27;571313;248;68423;-70
2022/07/04 05:55:01;;;;;;;;;;;;;;;23.95;83.94;97189.95;571262;248;65108;-70
2022/07/04 05:57:29;;;;;;;;;;;;;;;23.96;84.05;97190.77;571352;248;68704;-70
2022/07/04 05:59:56;;;;;;;;;;;;;;;23.96;84.38;97198.83;571060;248;68530;-70
2022/07/04 06:02:24;;;;;;;;;;;;;;;23.96;84.32;97196.94;571332;248;64840;-69
2022/07/04 06:04:51;;;;;;;;;;;;;;;23.96;83.94;97193.45;571306;248;66253;-70
2022/07/04 06:07:19;;;;;;;;;;;;;;;23.95;83.64;97194.52;571420;248;68662;-70
2022/07/04 06:09:46;;;;;;;;;;;;;;;23.96;83.64;97193.45;571424;248;65142;-70
2022/07/04 06:12:13;;;;;;;;;;;;;;;23.96;83.63;97198.83;571371;248;68871;-65
2022/07/04 06:14:41;;;;;;;;;;;;;;;23.94;83.61;97191.05;571417;248;66602;-70
2022/07/04 06:17:09;;;;;;;;;;;;;;;23.96;83.29;97191.56;571381;248;62941;-69
2022/07/04 06:19:36;;;;;;;;;;;;;;;23.97;83.62;97184.31;571367;248;69584;-69
2022/07/04 06:22:04;;;;;;;;;;;;;;;23.98;84.54;97189.41;571418;245;66517;-70
2022/07/04 06:24:31;;;;;;;;;;;;;;;23.96;84.33;97188.88;571280;248;62762;-70
2022/07/04 06:26:59;;;;;;;;;;;;;;;23.99;84.21;97185.62;571355;248;66481;-70
2022/07/04 06:29:27;;;;;;;;;;;;;;;24.00;85.28;97179.16;571319;246;66484;-68
2022/07/04 06:31:55;;;;;;;;;;;;;;;24.00;83.13;97173.79;571326;248;64994;-70
2022/07/04 06:37:08;;;;;;;;;;;;;;;24.02;83.06;97168.94;571397;248;67393;-70
2022/07/04 06:39:35;;;;;;;;;;;;;;;24.02;83.66;97165.47;571369;248;64971;-71
2022/07/04 06:42:03;;;;;;;;;;;;;;;24.01;83.94;97163.84;571408;248;68737;-70
2022/07/04 06:44:30;;;;;;;;;;;;;;;24.00;83.76;97168.42;571396;248;68526;-70
2022/07/04 06:46:58;;;;;;;;;;;;;;;24.00;83.79;97159.58;571414;248;64917;-69
2022/07/04 06:49:25;;;;;;;;;;;;;;;23.99;84.00;97158.78;571388;248;66495;-69
2022/07/04 06:51:53;;;;;;;;;;;;;;;23.99;84.08;97166.83;571314;248;66206;-69
2022/07/04 06:54:20;;;;;;;;;;;;;;;24.00;84.15;97151.52;574473;245;64703;-69
2022/07/04 06:56:48;;;;;;;;;;;;;;;24.10;80.16;97159.45;578357;245;68721;-69
2022/07/04 06:59:15;;;;;;;;;;;;;;;24.13;81.01;97150.83;578368;245;66785;-64
2022/07/04 07:01:43;;;;;;;;;;;;;;;24.12;80.44;97159.98;578329;243;63012;-67
2022/07/04 07:04:10;;;;;;;;;;;;;;;24.14;80.67;97147.04;578199;245;66500;-70
2022/07/04 07:06:38;;;;;;;;;;;;;;;24.12;79.64;97155.40;578442;245;66509;-65
2022/07/04 07:09:05;;;;;;;;;;;;;;;24.06;80.32;97148.50;578284;245;63063;-69
2022/07/04 07:11:33;;;;;;;;;;;;;;;24.12;80.90;97150.03;578202;245;68727;-70
2022/07/04 07:14:00;;;;;;;;;;;;;;;24.13;82.40;97148.94;578356;245;68514;-71
2022/07/04 07:16:28;;;;;;;;;;;;;;;24.12;82.96;97147.34;577996;245;65025;-72
2022/07/04 07:18:55;;;;;;;;;;;;;;;24.13;83.33;97142.77;577776;245;68312;-70
2022/07/04 07:21:23;;;;;;;;;;;;;;;24.13;83.56;97140.88;578316;245;68577;-70
2022/07/04 07:23:50;;;;;;;;;;;;;;;24.14;83.65;97141.67;578390;245;64261;-70
2022/07/04 07:26:18;;;;;;;;;;;;;;;24.14;83.80;97137.13;578214;245;66763;-70
2022/07/04 07:28:45;;;;;;;;;;;;;;;24.13;83.89;97138.19;578384;245;68381;-69
2022/07/04 07:31:14;;;;;;;;;;;;;;;24.14;83.96;97137.13;578385;245;62815;-72
2022/07/04 07:33:41;;;;;;;;;;;;;;;24.15;83.95;97129.86;577690;245;69969;-73
2022/07/04 07:36:09;;;;;;;;;;;;;;;24.15;83.94;97133.34;578369;245;68661;-72
2022/07/04 07:38:36;;;;;;;;;;;;;;;24.17;83.94;97126.87;578279;245;65101;-73
2022/07/04 07:41:05;;;;;;;;;;;;;;;24.16;83.90;97134.13;578326;245;68649;-73
2022/07/04 07:43:33;;;;;;;;;;;;;;;24.16;83.86;97123.39;578295;245;66410;-71
2022/07/04 07:46:00;;;;;;;;;;;;;;;24.16;83.73;97126.08;578453;245;62838;-70
2022/07/04 07:48:28;;;;;;;;;;;;;;;24.18;83.51;97120.44;578259;245;66455;-70
2022/07/04 07:50:55;;;;;;;;;;;;;;;24.17;83.46;97114.23;578181;245;66457;-69
2022/07/04 07:53:23;;;;;;;;;;;;;;;24.18;83.19;97115.86;578079;245;62794;-70
2022/07/04 07:55:50;;;;;;;;;;;;;;;24.19;83.13;97119.33;571395;248;68734;-65
2022/07/04 07:58:19;;;;;;;;;;;;;;;24.19;83.13;97124.70;571131;248;68690;-64
2022/07/04 08:00:47;;;;;;;;;;;;;;;24.19;83.15;97122.02;571123;248;65108;-70
2022/07/04 08:06:00;;;;;;;;;;;;;;;24.17;83.31;97113.45;571267;248;68468;-71
2022/07/04 08:08:30;;;;;;;;;;;;;;;24.14;83.42;97112.95;571312;245;45340;-70
2022/07/04 08:10:57;;;;;;;;;;;;;;;24.14;83.58;97114.82;570814;248;66547;-70
2022/07/04 08:13:26;;;;;;;;;;;;;;;24.13;83.67;97121.29;570750;245;68835;-69
2022/07/04 08:15:54;;;;;;;;;;;;;;;24.13;83.67;97121.29;571277;248;62767;-70
2022/07/04 08:18:22;;;;;;;;;;;;;;;24.12;83.66;97125.08;571340;248;67452;-70
2022/07/04 08:20:50;;;;;;;;;;;;;;;24.12;83.64;97131.23;571315;248;68662;-70
2022/07/04 08:23:18;;;;;;;;;;;;;;;24.11;83.84;97126.94;571404;248;64891;-70
2022/07/04 08:25:45;;;;;;;;;;;;;;;24.12;83.68;97117.81;571362;248;68677;-70
2022/07/04 08:28:13;;;;;;;;;;;;;;;24.11;83.63;97124.25;571357;248;68708;-70
2022/07/04 08:30:41;;;;;;;;;;;;;;;24.11;83.68;97118.88;571235;248;64927;-70
2022/07/04 08:33:08;;;;;;;;;;;;;;;24.11;83.67;97118.88;572943;245;68352;-70
2022/07/04 08:35:36;;;;;;;;;;;;;;;24.11;83.58;97121.56;572485;245;68461;-70
2022/07/04 08:38:03;;;;;;;;;;;;;;;24.11;83.58;97132.30;574117;245;63671;-70
2022/07/04 08:40:31;;;;;;;;;;;;;;;24.11;83.61;97129.62;572401;245;69653;-70
2022/07/04 08:42:58;;;;;;;;;;;;;;;24.11;83.62;97132.30;572382;245;66429;-70
2022/07/04 08:45:27;;;;;;;;;;;;;;;24.11;83.56;97123.45;574424;245;62855;-71
2022/07/04 08:48:04;;;;;;;;;;;;;;;24.11;83.65;97126.94;574773;245;66601;-69
2022/07/04 08:50:32;;;;;;;;;;;;;;;24.11;83.54;97121.56;577461;245;67363;-69
2022/07/04 08:53:05;;;;;;;;;;;;;;;24.11;83.45;97112.72;577488;245;43790;-70
2022/07/04 08:58:31;;;;;;;;;;;;;;;24.10;83.30;97111.92;577447;245;68630;-69
2022/07/04 09:01:03;;;;;;;;;;;;;;;24.12;83.42;97122.39;577447;245;62956;-70
2022/07/04 09:03:31;;;;;;;;;;;;;;;24.11;83.33;97126.14;577379;245;68694;-71
2022/07/04 09:05:59;;;;;;;;;;;;;;;24.11;83.31;97118.88;577425;245;68504;-69
2022/07/04 09:08:26;;;;;;;;;;;;;;;24.11;83.35;97123.45;577435;245;64883;-69
2022/07/04 09:10:54;;;;;;;;;;;;;;;24.11;83.38;97126.14;577468;245;68653;-69
2022/07/04 09:13:28;;;;;;;;;;;;;;;24.23;83.41;97115.79;638431;222;35612;-70
2022/07/04 09:15:55;;;;;;;;;;;;;;;24.12;83.36;97125.08;632121;224;63425;-71
2022/07/04 09:18:27;;;;;;;;;;;;;;;24.11;83.31;97118.88;632127;224;64473;-69
2022/07/04 09:20:55;;;;;;;;;;;;;;;24.12;83.29;97107.07;632096;224;65462;-69
2022/07/04 09:23:30;;;;;;;;;;;;;;;24.11;83.35;97105.45;632081;224;64971;-67
2022/07/04 09:26:15;;;;;;;;;;;;;;;24.11;80.32;97101.98;631782;224;62242;-69
2022/07/04 09:28:43;;;;;;;;;;;;;;;24.13;82.63;97097.92;632134;224;64074;-70
2022/07/04 09:31:21;;;;;;;;;;;;;;;24.12;82.95;97090.96;632065;224;66271;-70
2022/07/04 09:33:51;;;;;;;;;;;;;;;24.12;83.35;97096.33;632149;224;64489;-68
2022/07/04 09:36:20;;;;;;;;;;;;;;;24.12;83.16;97092.85;632140;224;62092;-70
2022/07/04 09:38:49;;;;;;;;;;;;;;;24.12;80.98;97095.54;632167;224;65271;-70
2022/07/04 09:41:26;;;;;;;;;;;;;;;24.13;82.77;97103.28;631270;224;64481;-71
2022/07/04 09:44:04;;;;;;;;;;;;;;;24.13;82.91;97091.75;632066;224;64183;-69
2022/07/04 09:46:34;;;;;;;;;;;;;;;24.11;83.48;97097.41;632167;224;45966;-70
2022/07/04 09:49:01;;;;;;;;;;;;;;;24.12;83.26;97092.85;632145;224;64290;-69
2022/07/04 09:51:43;;;;;;;;;;;;;;;24.12;83.03;97104.39;632184;224;64308;-69
2022/07/04 09:54:17;;;;;;;;;;;;;;;24.13;82.96;97102.49;632077;224;65091;-69
2022/07/04 09:56:46;;;;;;;;;;;;;;;24.12;82.98;97096.33;631765;224;62159;-69
2022/07/04 09:59:14;;;;;;;;;;;;;;;24.12;82.96;97096.33;631822;224;64201;-69
2022/07/04 10:01:42;;;;;;;;;;;;;;;24.13;82.91;97102.49;632148;224;64865;-69
2022/07/04 10:04:11;;;;;;;;;;;;;;;24.12;82.93;97096.33;632203;224;64498;-71
2022/07/04 10:06:39;;;;;;;;;;;;;;;24.13;82.91;97102.49;632197;224;61735;-71
2022/07/04 10:09:14;;;;;;;;;;;;;;;24.12;82.84;97101.70;632187;224;64890;-72
2022/07/04 10:11:44;;;;;;;;;;;;;;;24.13;82.86;97102.49;632392;224;64522;-72
2022/07/04 10:14:12;;;;;;;;;;;;;;;24.13;82.88;97100.60;633045;224;62116;-73
2022/07/04 10:16:41;;;;;;;;;;;;;;;24.13;82.81;97087.17;633052;224;64925;-70
2022/07/04 10:19:09;;;;;;;;;;;;;;;24.13;82.82;97084.49;633070;224;64434;-71
2022/07/04 10:21:37;;;;;;;;;;;;;;;24.13;82.80;97081.80;633030;224;64435;-69
2022/07/04 10:24:04;;;;;;;;;;;;;;;24.14;82.80;97087.97;632950;224;62784;-71
2022/07/04 10:26:32;;;;;;;;;;;;;;;24.14;82.75;97079.91;632950;224;62181;-71
2022/07/04 10:28:59;;;;;;;;;;;;;;;24.14;82.79;97091.48;632860;224;64170;-70
2022/07/04 10:31:28;;;;;;;;;;;;;;;24.14;82.74;97082.60;632894;224;64867;-70
2022/07/04 10:33:57;;;;;;;;;;;;;;;24.14;82.73;97086.11;632954;224;64393;-70
2022/07/04 10:36:30;;;;;;;;;;;;;;;24.14;82.71;97079.91;632916;224;62008;-73
2022/07/04 10:38:59;;;;;;;;;;;;;;;24.15;82.58;97079.64;632798;224;65118;-70
2022/07/04 10:41:28;;;;;;;;;;;;;;;24.19;77.52;97073.69;632823;224;62257;-70
2022/07/04 10:44:00;;;;;;;;;;;;;;;24.19;80.52;97077.16;632794;224;64206;-73
2022/07/04 10:46:37;;;;;;;;;;;;;;;24.17;81.12;97073.17;632653;224;64922;-71
2022/07/04 10:49:09;;;;;;;;;;;;;;;24.17;81.48;97075.86;632873;224;62172;-70
2022/07/04 10:51:45;;;;;;;;;;;;;;;24.15;81.98;97074.27;632461;224;62085;-70
2022/07/04 10:54:31;;;;;;;;;;;;;;;24.15;82.09;97078.84;632821;224;62863;-65
2022/07/04 10:57:19;;;;;;;;;;;;;;;24.17;82.19;97067.80;632757;224;64645;-70
2022/07/04 10:59:57;;;;;;;;;;;;;;;24.19;78.97;97073.69;632366;224;62306;-70
2022/07/04 11:02:26;;;;;;;;;;;;;;;24.18;81.49;97064.84;632879;224;62926;-70
2022/07/04 11:04:58;;;;;;;;;;;;;;;24.17;82.02;97065.12;632721;224;64586;-69
2022/07/04 11:07:33;;;;;;;;;;;;;;;24.17;82.39;97063.22;632930;224;64456;-69
2022/07/04 11:10:33;;;;;;;;;;;;;;;24.18;81.89;97061.36;632862;224;62855;-70
2022/07/04 11:12:57;;;;;;;;;;;;;;;24.17;81.76;97062.43;628931;224;62252;-71
2022/07/04 11:15:29;;;;;;;;;;;;;;;24.17;82.00;97065.12;630591;225;62114;-69
2022/07/04 11:17:57;;;;;;;;;;;;;;;24.15;82.23;97063.53;630469;225;65077;-70
2022/07/04 11:20:26;;;;;;;;;;;;;;;24.15;82.33;97052.00;630698;225;64275;-70
2022/07/04 11:22:54;;;;;;;;;;;;;;;24.15;82.41;97047.42;630746;225;64166;-70
2022/07/04 11:25:21;;;;;;;;;;;;;;;24.15;82.41;97044.73;630572;225;64802;-70
2022/07/04 11:27:49;;;;;;;;;;;;;;;24.15;82.40;97042.05;630547;225;64566;-72
2022/07/04 11:30:16;;;;;;;;;;;;;;;24.17;82.39;97049.00;630685;225;63036;-69
2022/07/04 11:32:44;;;;;;;;;;;;;;;24.15;82.45;97035.89;630619;225;62716;-67
2022/07/04 11:35:11;;;;;;;;;;;;;;;24.15;82.43;97039.36;630674;225;62167;-69
2022/07/04 11:37:39;;;;;;;;;;;;;;;24.15;82.29;97034.00;630693;225;62118;-70
2022/07/04 11:45:51;;;;;;;;;;;;;;;24.17;82.65;97024.84;630636;225;64447;-70
2022/07/04 11:48:25;;;;;;;;;;;;;;;24.17;82.58;97035.58;630642;225;65161;-70
2022/07/04 11:50:53;;;;;;;;;;;;;;;24.17;82.47;97038.27;630791;225;62234;-71
2022/07/04 11:53:22;;;;;;;;;;;;;;;24.17;82.50;97040.95;630752;224;41723;-71
2022/07/04 11:55:53;;;;;;;;;;;;;;;24.17;82.63;97039.05;630658;225;63153;-72
2022/07/04 11:58:21;;;;;;;;;;;;;;;24.17;82.49;97041.73;630701;225;62304;-69
2022/07/04 12:00:49;;;;;;;;;;;;;;;24.17;82.49;97033.69;630633;225;64744;-70
2022/07/04 12:03:16;;;;;;;;;;;;;;;24.18;82.61;97031.82;630625;225;64916;-70
2022/07/04 12:05:46;;;;;;;;;;;;;;;24.18;82.57;97034.51;630659;225;64449;-70
2022/07/04 12:08:13;;;;;;;;;;;;;;;24.18;82.61;97026.45;630669;225;62071;-72
2022/07/04 12:10:41;;;;;;;;;;;;;;;24.18;82.63;97029.93;630711;225;63695;-72
2022/07/04 12:13:11;;;;;;;;;;;;;;;24.19;82.59;97030.72;632580;224;64463;-72
2022/07/04 12:15:46;;;;;;;;;;;;;;;24.19;82.63;97025.35;632663;224;64153;-73
2022/07/04 12:18:20;;;;;;;;;;;;;;;24.19;82.67;97022.67;632558;224;47341;-71
2022/07/04 12:20:48;;;;;;;;;;;;;;;24.18;82.63;97019.19;632606;224;63250;-71
2022/07/04 12:23:16;;;;;;;;;;;;;;;24.19;82.63;97014.61;632863;224;64163;-70
2022/07/04 12:25:45;;;;;;;;;;;;;;;24.20;82.77;97010.83;632848;224;64933;-71
2022/07/04 12:28:17;;;;;;;;;;;;;;;24.19;82.70;97007.35;629909;224;62194;-72
2022/07/04 12:30:58;;;;;;;;;;;;;;;24.20;82.62;97000.09;629234;224;64223;-73
2022/07/04 12:33:26;;;;;;;;;;;;;;;24.20;82.61;97005.45;630050;225;65081;-71
2022/07/04 12:36:00;;;;;;;;;;;;;;;24.20;82.68;97005.45;630109;224;41089;-72
2022/07/04 12:38:30;;;;;;;;;;;;;;;24.19;82.63;97001.98;627571;225;62295;-70
2022/07/04 12:40:59;;;;;;;;;;;;;;;24.20;82.64;96998.22;625896;225;62681;-71
2022/07/04 12:43:43;;;;;;;;;;;;;;;24.19;82.65;96988.55;625419;227;64524;-71
2022/07/04 12:46:11;;;;;;;;;;;;;;;24.20;82.71;96998.22;625637;226;62115;-70
2022/07/04 12:48:39;;;;;;;;;;;;;;;24.20;82.54;96994.72;625585;227;62712;-72
2022/07/04 12:51:11;;;;;;;;;;;;;;;24.20;82.61;96986.66;625569;227;64665;-71
2022/07/04 12:53:40;;;;;;;;;;;;;;;24.20;82.68;96984.80;625518;227;64261;-69
2022/07/04 12:56:09;;;;;;;;;;;;;;;24.21;82.57;96991.75;625574;227;64922;-70
2022/07/04 12:58:36;;;;;;;;;;;;;;;24.21;82.59;96988.27;625507;227;63136;-72
2022/07/04 13:01:04;;;;;;;;;;;;;;;24.21;82.58;96985.59;625584;227;64133;-72
2022/07/04 13:03:31;;;;;;;;;;;;;;;24.21;82.52;96988.27;625462;227;62699;-72
2022/07/04 13:05:59;;;;;;;;;;;;;;;24.24;82.62;97001.11;625280;227;64474;-72
2022/07/04 13:08:26;;;;;;;;;;;;;;;24.23;82.56;96994.16;625592;227;64230;-72
2022/07/04 13:12:24;;;;;;;;;;;;;;;24.21;82.55;96991.75;625505;227;64694;-72
2022/07/04 13:13:23;;;;;;;;;;;;;;;24.23;82.53;96992.27;622563;227;62056;-72
2022/07/04 13:15:50;;;;;;;;;;;;;;;24.23;82.50;96986.89;623441;227;62082;-72